createdAt,value
2018-07-15T00:00:55.558Z,1021.47
2018-07-15T00:02:22.793Z,1021.47
2018-07-15T00:03:50.132Z,1021.43
2018-07-15T00:05:17.751Z,1021.43
2018-07-15T00:06:44.861Z,1021.42
2018-07-15T00:08:12.444Z,1021.42
2018-07-15T00:09:39.724Z,1021.43
2018-07-15T00:11:07.245Z,1021.46
2018-07-15T00:12:34.573Z,1021.46
2018-07-15T00:14:01.860Z,1021.48
2018-07-15T00:15:29.174Z,1021.47
2018-07-15T00:16:56.335Z,1021.49
2018-07-15T00:18:23.699Z,1021.47
2018-07-15T00:19:51.060Z,1021.46
2018-07-15T00:21:18.497Z,1021.46
2018-07-15T00:22:45.840Z,1021.48
2018-07-15T00:24:13.183Z,1021.48
2018-07-15T00:25:40.363Z,1021.48
2018-07-15T00:27:07.739Z,1021.46
2018-07-15T00:28:35.012Z,1021.43
2018-07-15T00:30:02.407Z,1021.40
2018-07-15T00:31:29.798Z,1021.40
2018-07-15T00:32:56.911Z,1021.41
2018-07-15T00:34:24.468Z,1021.38
2018-07-15T00:35:51.851Z,1021.39
2018-07-15T00:37:19.030Z,1021.40
2018-07-15T00:38:46.735Z,1021.39
2018-07-15T00:40:13.833Z,1021.38
2018-07-15T00:47:01.164Z,1021.42
2018-07-15T00:48:27.864Z,1021.44
2018-07-15T00:49:54.756Z,1021.38
2018-07-15T00:51:25.263Z,1021.39
2018-07-15T00:52:49.558Z,1021.40
2018-07-15T00:54:16.948Z,1021.40
2018-07-15T00:55:44.386Z,1021.40
2018-07-15T00:57:11.756Z,1021.42
2018-07-15T00:58:39.100Z,1021.42
2018-07-15T01:00:06.267Z,1021.43
2018-07-15T01:01:33.744Z,1021.43
2018-07-15T01:03:01.306Z,1021.41
2018-07-15T01:04:28.588Z,1021.42
2018-07-15T01:05:55.824Z,1021.43
2018-07-15T01:07:23.121Z,1021.44
2018-07-15T01:08:50.466Z,1021.42
2018-07-15T01:10:17.763Z,1021.41
2018-07-15T01:11:45.044Z,1021.42
2018-07-15T01:13:12.703Z,1021.45
2018-07-15T01:14:39.925Z,1021.46
2018-07-15T01:16:07.334Z,1021.45
2018-07-15T01:17:34.662Z,1021.43
2018-07-15T01:19:02.156Z,1021.41
2018-07-15T01:20:29.405Z,1021.41
2018-07-15T01:21:56.691Z,1021.39
2018-07-15T01:23:24.025Z,1021.37
2018-07-15T01:24:51.304Z,1021.40
2018-07-15T01:26:18.865Z,1021.39
2018-07-15T01:27:46.291Z,1021.42
2018-07-15T01:29:13.650Z,1021.42
2018-07-15T01:30:41.002Z,1021.43
2018-07-15T01:32:07.882Z,1021.46
2018-07-15T01:33:35.386Z,1021.45
2018-07-15T01:35:02.387Z,1021.44
2018-07-15T01:36:29.674Z,1021.42
2018-07-15T01:37:56.968Z,1021.42
2018-07-15T01:39:24.405Z,1021.40
2018-07-15T01:40:51.610Z,1021.38
2018-07-15T01:42:18.899Z,1021.35
2018-07-15T01:43:46.340Z,1021.31
2018-07-15T01:45:13.736Z,1021.33
2018-07-15T01:46:41.108Z,1021.33
2018-07-15T01:48:08.446Z,1021.34
2018-07-15T01:49:35.791Z,1021.33
2018-07-15T01:51:03.135Z,1021.33
2018-07-15T01:52:30.422Z,1021.33
2018-07-15T01:57:11.632Z,1021.35
2018-07-15T01:58:38.005Z,1021.36
2018-07-15T02:00:05.347Z,1021.34
2018-07-15T02:14:47.460Z,1021.34
2018-07-15T02:16:14.191Z,1021.33
2018-07-15T02:17:41.374Z,1021.34
2018-07-15T02:19:08.625Z,1021.35
2018-07-15T02:20:35.968Z,1021.35
2018-07-15T02:22:12.934Z,1021.33
2018-07-15T02:38:41.353Z,1021.29
2018-07-15T02:40:08.164Z,1021.29
2018-07-15T02:41:35.306Z,1021.27
2018-07-15T02:43:02.628Z,1021.29
2018-07-15T02:44:29.654Z,1021.29
2018-07-15T05:53:19.429Z,1021.39
2018-07-15T05:54:46.353Z,1021.37
2018-07-15T05:56:13.678Z,1021.34
2018-07-15T05:57:41.041Z,1021.27
2018-07-15T05:59:08.193Z,1021.27
2018-07-15T06:00:35.712Z,1021.23
2018-07-15T06:02:02.745Z,1021.17
2018-07-15T06:03:30.180Z,1021.15
2018-07-15T06:04:57.665Z,1021.14
2018-07-15T06:06:24.937Z,1021.14
2018-07-15T06:07:52.333Z,1021.14
2018-07-15T06:09:19.778Z,1021.14
2018-07-15T06:10:46.700Z,1021.13
2018-07-15T06:12:13.335Z,1021.09
2018-07-15T06:13:40.846Z,1021.09
2018-07-15T06:15:08.356Z,1021.14
2018-07-15T06:16:35.840Z,1021.11
2018-07-15T06:18:03.103Z,1021.10
2018-07-15T06:19:30.258Z,1021.10
2018-07-15T06:20:57.650Z,1021.09
2018-07-15T06:22:24.559Z,1021.11
2018-07-15T06:23:52.140Z,1021.11
2018-07-15T06:25:19.741Z,1021.13
2018-07-15T06:26:47.318Z,1021.14
2018-07-15T06:28:14.214Z,1021.16
2018-07-15T06:29:41.114Z,1021.18
2018-07-15T06:31:08.674Z,1021.15
2018-07-15T06:32:36.012Z,1021.14
2018-07-15T06:34:03.524Z,1021.14
2018-07-15T06:35:30.824Z,1021.18
2018-07-15T06:36:58.497Z,1021.18
2018-07-15T06:38:25.949Z,1021.18
2018-07-15T06:39:53.487Z,1021.17
2018-07-15T06:41:21.067Z,1021.18
2018-07-15T06:42:48.672Z,1021.16
2018-07-15T06:44:15.983Z,1021.16
2018-07-15T06:45:43.483Z,1021.15
2018-07-15T06:47:10.944Z,1021.14
2018-07-15T06:48:38.267Z,1021.14
2018-07-15T06:50:05.958Z,1021.13
2018-07-15T06:51:33.103Z,1021.07
2018-07-15T06:53:00.481Z,1021.05
2018-07-15T06:54:28.007Z,1021.10
2018-07-15T06:55:55.465Z,1021.09
2018-07-15T06:57:22.876Z,1021.10
2018-07-15T06:58:50.033Z,1021.11
2018-07-15T07:00:16.883Z,1021.07
2018-07-15T07:01:44.526Z,1021.06
2018-07-15T07:03:12.013Z,1021.06
2018-07-15T07:04:39.713Z,1021.02
2018-07-15T07:06:07.225Z,1021.02
2018-07-15T07:07:34.698Z,1021.05
2018-07-15T07:09:02.006Z,1021.05
2018-07-15T07:10:28.689Z,1021.02
2018-07-15T07:11:55.917Z,1021.07
2018-07-15T07:13:23.101Z,1021.08
2018-07-15T07:14:49.946Z,1021.08
2018-07-15T07:16:17.238Z,1021.04
2018-07-15T07:17:44.669Z,1021.05
2018-07-15T07:19:12.024Z,1021.08
2018-07-15T07:20:39.078Z,1021.07
2018-07-15T07:22:05.638Z,1021.08
2018-07-15T07:23:33.188Z,1021.03
2018-07-15T07:24:59.774Z,1021.00
2018-07-15T07:26:26.882Z,1020.99
2018-07-15T07:27:53.733Z,1020.95
2018-07-15T07:29:20.848Z,1020.95
2018-07-15T07:30:48.307Z,1020.93
2018-07-15T07:32:15.733Z,1020.98
2018-07-15T07:33:42.994Z,1020.97
2018-07-15T07:35:09.949Z,1020.99
2018-07-15T07:36:36.872Z,1020.98
2018-07-15T07:38:04.173Z,1020.94
2018-07-15T07:39:31.357Z,1020.95
2018-07-15T07:40:58.639Z,1020.94
2018-07-15T07:42:25.423Z,1020.94
2018-07-15T07:43:52.985Z,1021.00
2018-07-15T07:45:20.478Z,1020.99
2018-07-15T07:46:47.937Z,1020.99
2018-07-15T07:48:14.576Z,1021.02
2018-07-15T07:49:41.952Z,1020.99
2018-07-15T07:51:08.577Z,1020.98
2018-07-15T07:52:36.217Z,1020.99
2018-07-15T07:54:03.472Z,1021.00
2018-07-15T07:55:31.002Z,1021.01
2018-07-15T07:56:58.079Z,1021.01
2018-07-15T07:58:25.495Z,1021.02
2018-07-15T07:59:52.784Z,1021.04
2018-07-15T08:01:20.389Z,1021.01
2018-07-15T08:02:47.381Z,1021.01
2018-07-15T08:04:15.017Z,1021.00
2018-07-15T08:05:42.685Z,1020.96
2018-07-15T08:07:09.296Z,1021.00
2018-07-15T08:08:35.747Z,1021.04
2018-07-15T08:10:03.295Z,1021.09
2018-07-15T08:11:30.359Z,1021.11
2018-07-15T08:12:57.862Z,1021.11
2018-07-15T08:14:25.575Z,1021.12
2018-07-15T08:15:52.511Z,1021.11
2018-07-15T08:17:19.385Z,1021.10
2018-07-15T08:18:46.709Z,1021.08
2018-07-15T08:20:14.507Z,1021.08
2018-07-15T08:21:41.103Z,1021.10
2018-07-15T08:23:08.254Z,1021.11
2018-07-15T08:24:35.284Z,1021.10
2018-07-15T08:26:02.469Z,1021.09
2018-07-15T08:27:29.529Z,1021.09
2018-07-15T08:28:56.936Z,1021.06
2018-07-15T08:30:24.563Z,1021.04
2018-07-15T08:31:52.243Z,1021.05
2018-07-15T08:33:19.546Z,1021.04
2018-07-15T08:34:46.535Z,1021.10
2018-07-15T08:36:13.862Z,1021.08
2018-07-15T08:37:41.502Z,1021.10
2018-07-15T08:39:09.086Z,1021.12
2018-07-15T08:40:36.248Z,1021.12
2018-07-15T08:42:03.525Z,1021.11
2018-07-15T08:43:30.826Z,1021.14
2018-07-15T08:44:58.330Z,1021.15
2018-07-15T08:46:25.816Z,1021.17
2018-07-15T08:47:53.344Z,1021.20
2018-07-15T08:49:20.816Z,1021.21
2018-07-15T08:50:48.341Z,1021.20
2018-07-15T08:52:15.656Z,1021.18
2018-07-15T08:53:43.273Z,1021.20
2018-07-15T08:55:10.268Z,1021.15
2018-07-15T08:56:37.841Z,1021.17
2018-07-15T08:58:05.284Z,1021.14
2018-07-15T08:59:32.370Z,1021.14
2018-07-15T09:00:59.802Z,1021.12
2018-07-15T09:02:26.883Z,1021.11
2018-07-15T09:03:54.246Z,1021.08
2018-07-15T09:05:21.677Z,1021.07
2018-07-15T09:06:49.215Z,1021.06
2018-07-15T09:08:16.602Z,1021.05
2018-07-15T09:09:43.826Z,1021.07
2018-07-15T09:11:11.343Z,1021.08
2018-07-15T09:12:38.847Z,1021.07
2018-07-15T09:14:06.427Z,1021.11
2018-07-15T09:15:33.757Z,1021.10
2018-07-15T09:17:01.101Z,1021.11
2018-07-15T09:18:28.591Z,1021.10
2018-07-15T09:19:56.136Z,1021.05
2018-07-15T09:21:23.829Z,1021.04
2018-07-15T09:22:50.997Z,1021.02
2018-07-15T09:24:17.743Z,1021.02
2018-07-15T09:25:45.343Z,1021.02
2018-07-15T09:27:12.057Z,1021.01
2018-07-15T09:28:38.993Z,1020.99
2018-07-15T09:30:06.121Z,1021.00
2018-07-15T09:31:33.673Z,1020.99
2018-07-15T09:33:01.295Z,1020.93
2018-07-15T09:34:28.610Z,1020.95
2018-07-15T09:35:55.918Z,1020.94
2018-07-15T09:37:23.274Z,1020.95
2018-07-15T09:38:50.912Z,1020.96
2018-07-15T09:40:18.110Z,1020.93
2018-07-15T09:41:45.340Z,1020.96
2018-07-15T09:43:12.843Z,1020.97
2018-07-15T09:44:40.277Z,1021.02
2018-07-15T09:46:07.797Z,1021.01
2018-07-15T09:47:35.121Z,1021.00
2018-07-15T09:49:02.465Z,1021.06
2018-07-15T09:50:29.861Z,1021.05
2018-07-15T09:51:56.602Z,1021.04
2018-07-15T09:53:23.604Z,1021.04
2018-07-15T09:54:51.245Z,1021.05
2018-07-15T09:56:18.306Z,1021.05
2018-07-15T09:57:45.791Z,1021.03
2018-07-15T09:59:12.628Z,1021.04
2018-07-15T10:00:39.646Z,1021.03
2018-07-15T10:02:06.709Z,1021.04
2018-07-15T10:03:34.157Z,1021.04
2018-07-15T10:05:01.431Z,1021.06
2018-07-15T10:06:28.820Z,1021.07
2018-07-15T10:07:56.385Z,1021.08
2018-07-15T10:09:24.077Z,1021.12
2018-07-15T10:10:51.413Z,1021.11
2018-07-15T10:12:18.753Z,1021.10
2018-07-15T10:13:46.060Z,1021.09
2018-07-15T10:15:13.431Z,1021.09
2018-07-15T10:16:40.863Z,1021.10
2018-07-15T10:18:08.244Z,1021.10
2018-07-15T10:19:35.558Z,1021.12
2018-07-15T10:21:03.064Z,1021.13
2018-07-15T10:22:30.549Z,1021.12
2018-07-15T10:23:57.480Z,1021.15
2018-07-15T10:25:24.928Z,1021.13
2018-07-15T10:26:51.994Z,1021.12
2018-07-15T10:28:18.876Z,1021.12
2018-07-15T10:29:45.935Z,1021.16
2018-07-15T10:31:12.835Z,1021.12
2018-07-15T10:32:39.939Z,1021.11
2018-07-15T10:34:06.927Z,1021.11
2018-07-15T10:35:34.190Z,1021.08
2018-07-15T10:37:01.570Z,1021.10
2018-07-15T10:38:28.712Z,1021.08
2018-07-15T10:39:56.053Z,1021.07
2018-07-15T10:41:23.224Z,1021.04
2018-07-15T10:42:53.415Z,1021.04
2018-07-15T10:44:17.617Z,1021.03
2018-07-15T10:45:45.257Z,1020.99
2018-07-15T10:47:12.271Z,1020.97
2018-07-15T10:48:39.705Z,1020.94
2018-07-15T10:50:06.688Z,1020.93
2018-07-15T10:51:34.165Z,1020.91
2018-07-15T10:53:01.580Z,1020.92
2018-07-15T10:54:28.827Z,1020.93
2018-07-15T10:55:56.303Z,1020.95
2018-07-15T10:57:23.849Z,1020.92
2018-07-15T10:58:51.365Z,1020.90
2018-07-15T11:00:18.910Z,1020.87
2018-07-15T11:01:45.765Z,1020.87
2018-07-15T11:03:13.161Z,1020.94
2018-07-15T11:04:40.530Z,1020.87
2018-07-15T11:06:07.571Z,1020.88
2018-07-15T11:07:35.057Z,1020.88
2018-07-15T11:09:02.439Z,1020.86
2018-07-15T11:10:29.713Z,1020.84
2018-07-15T11:11:56.946Z,1020.84
2018-07-15T11:13:24.181Z,1020.84
2018-07-15T11:14:51.681Z,1020.82
2018-07-15T11:16:18.424Z,1020.76
2018-07-15T11:17:45.560Z,1020.72
2018-07-15T11:19:12.619Z,1020.72
2018-07-15T11:20:39.650Z,1020.72
2018-07-15T11:22:06.870Z,1020.73
2018-07-15T11:23:33.853Z,1020.73
2018-07-15T11:25:01.267Z,1020.66
2018-07-15T11:26:28.327Z,1020.66
2018-07-15T11:27:55.796Z,1020.68
2018-07-15T11:29:23.211Z,1020.67
2018-07-15T11:30:50.678Z,1020.66
2018-07-15T11:32:17.375Z,1020.58
2018-07-15T11:33:44.633Z,1020.56
2018-07-15T11:35:11.895Z,1020.49
2018-07-15T11:36:38.836Z,1020.49
2018-07-15T11:38:05.265Z,1020.45
2018-07-15T11:39:32.168Z,1020.44
2018-07-15T11:40:59.566Z,1020.47
2018-07-15T11:42:26.659Z,1020.44
2018-07-15T11:43:54.149Z,1020.48
2018-07-15T11:45:21.260Z,1020.53
2018-07-15T11:46:48.948Z,1020.53
2018-07-15T11:48:16.124Z,1020.56
2018-07-15T11:49:43.442Z,1020.45
2018-07-15T11:51:10.671Z,1020.45
2018-07-15T11:52:37.770Z,1020.45
2018-07-15T11:54:05.027Z,1020.50
2018-07-15T11:55:31.972Z,1020.50
2018-07-15T11:56:59.601Z,1020.48
2018-07-15T11:58:27.030Z,1020.47
2018-07-15T11:59:54.583Z,1020.42
2018-07-15T12:01:22.080Z,1020.40
2018-07-15T12:02:49.517Z,1020.38
2018-07-15T12:04:16.806Z,1020.39
2018-07-15T12:05:44.196Z,1020.39
2018-07-15T12:07:11.341Z,1020.40
2018-07-15T12:08:38.644Z,1020.42
2018-07-15T12:10:06.784Z,1020.39
2018-07-15T12:11:32.748Z,1020.38
2018-07-15T12:13:00.109Z,1020.33
2018-07-15T12:14:26.719Z,1020.30
2018-07-15T12:15:53.746Z,1020.33
2018-07-15T12:17:21.487Z,1020.29
2018-07-15T12:18:48.983Z,1020.26
2018-07-15T12:20:16.636Z,1020.23
2018-07-15T12:21:40.910Z,1020.25
2018-07-15T12:23:11.676Z,1020.23
2018-07-15T12:24:39.000Z,1020.23
2018-07-15T12:26:06.424Z,1020.18
2018-07-15T12:27:33.455Z,1020.20
2018-07-15T12:29:00.842Z,1020.18
2018-07-15T12:30:28.262Z,1020.17
2018-07-15T12:31:55.763Z,1020.19
2018-07-15T12:33:23.467Z,1020.22
2018-07-15T12:34:51.074Z,1020.21
2018-07-15T12:36:18.448Z,1020.23
2018-07-15T12:37:46.145Z,1020.26
2018-07-15T12:39:12.897Z,1020.25
2018-07-15T12:40:40.311Z,1020.27
2018-07-15T12:42:07.679Z,1020.27
2018-07-15T12:43:34.680Z,1020.28
2018-07-15T12:45:01.751Z,1020.26
2018-07-15T12:46:29.187Z,1020.16
2018-07-15T12:47:56.558Z,1020.15
2018-07-15T12:49:24.143Z,1020.19
2018-07-15T12:50:51.945Z,1020.15
2018-07-15T12:52:19.662Z,1020.15
2018-07-15T12:53:46.941Z,1020.14
2018-07-15T12:55:15.293Z,1020.14
2018-07-15T12:56:41.817Z,1020.14
2018-07-15T12:58:08.940Z,1020.17
2018-07-15T12:59:36.526Z,1020.18
2018-07-15T13:01:04.082Z,1020.13
2018-07-15T13:02:31.762Z,1020.15
2018-07-15T13:03:58.819Z,1020.16
2018-07-15T13:05:26.124Z,1020.19
2018-07-15T13:06:53.294Z,1020.17
2018-07-15T13:08:20.727Z,1020.15
2018-07-15T13:09:48.120Z,1020.14
2018-07-15T13:11:15.525Z,1020.19
2018-07-15T13:12:43.166Z,1020.18
2018-07-15T13:14:10.628Z,1020.17
2018-07-15T13:15:38.174Z,1020.18
2018-07-15T13:17:05.527Z,1020.16
2018-07-15T13:18:32.695Z,1020.14
2018-07-15T13:19:59.935Z,1020.11
2018-07-15T13:21:27.204Z,1020.11
2018-07-15T13:22:54.060Z,1020.08
2018-07-15T13:24:21.302Z,1020.07
2018-07-15T13:25:48.791Z,1020.07
2018-07-15T13:27:16.141Z,1020.07
2018-07-15T13:28:43.397Z,1020.08
2018-07-15T13:30:11.034Z,1020.05
2018-07-15T13:31:38.538Z,1020.09
2018-07-15T13:33:06.015Z,1020.13
2018-07-15T13:34:33.675Z,1020.15
2018-07-15T13:36:01.282Z,1020.17
2018-07-15T13:37:28.443Z,1020.16
2018-07-15T13:38:56.040Z,1020.15
2018-07-15T13:40:23.487Z,1020.13
2018-07-15T13:41:51.234Z,1020.09
2018-07-15T13:43:18.212Z,1020.09
2018-07-15T13:44:45.041Z,1020.13
2018-07-15T13:46:11.873Z,1020.16
2018-07-15T13:47:38.801Z,1020.13
2018-07-15T13:49:06.382Z,1020.11
2018-07-15T13:50:34.031Z,1020.09
2018-07-15T13:52:01.290Z,1020.05
2018-07-15T13:53:28.513Z,1020.02
2018-07-15T13:54:56.005Z,1020.02
2018-07-15T13:56:23.739Z,1019.99
2018-07-15T13:57:51.294Z,1019.98
2018-07-15T13:59:17.858Z,1020.00
2018-07-15T14:00:45.304Z,1019.96
2018-07-15T14:02:12.398Z,1019.92
2018-07-15T14:03:40.034Z,1019.90
2018-07-15T14:05:07.559Z,1019.89
2018-07-15T14:06:34.951Z,1019.89
2018-07-15T14:08:01.787Z,1019.94
2018-07-15T14:09:28.957Z,1019.94
2018-07-15T14:10:56.343Z,1019.93
2018-07-15T14:12:23.788Z,1019.93
2018-07-15T14:13:51.240Z,1019.89
2018-07-15T14:15:18.823Z,1019.91
2018-07-15T14:16:46.177Z,1019.93
2018-07-15T14:18:13.107Z,1019.92
2018-07-15T14:19:40.273Z,1019.91
2018-07-15T14:21:07.406Z,1019.95
2018-07-15T14:22:35.007Z,1019.96
2018-07-15T14:24:02.555Z,1019.93
2018-07-15T14:25:30.242Z,1019.89
2018-07-15T14:26:57.302Z,1019.90
2018-07-15T14:28:24.933Z,1019.89
2018-07-15T14:29:52.532Z,1019.89
2018-07-15T14:31:19.686Z,1019.87
2018-07-15T14:32:47.239Z,1019.88
2018-07-15T14:34:14.548Z,1019.89
2018-07-15T14:35:41.641Z,1019.90
2018-07-15T14:37:09.171Z,1019.89
2018-07-15T14:38:39.643Z,1019.88
2018-07-15T14:40:03.807Z,1019.86
2018-07-15T14:41:31.330Z,1019.82
2018-07-15T14:42:58.836Z,1019.78
2018-07-15T14:44:25.938Z,1019.76
2018-07-15T14:45:53.578Z,1019.77
2018-07-15T14:47:21.144Z,1019.77
2018-07-15T14:48:48.696Z,1019.77
2018-07-15T14:50:16.236Z,1019.75
2018-07-15T14:51:43.576Z,1019.80
2018-07-15T14:53:11.138Z,1019.81
2018-07-15T14:54:38.614Z,1019.80
2018-07-15T14:56:05.863Z,1019.77
2018-07-15T14:57:33.017Z,1019.75
2018-07-15T14:59:00.254Z,1019.72
2018-07-15T15:00:27.492Z,1019.71
2018-07-15T15:01:55.008Z,1019.68
2018-07-15T15:03:22.438Z,1019.68
2018-07-15T15:04:50.083Z,1019.67
2018-07-15T15:06:17.227Z,1019.67
2018-07-15T15:07:44.916Z,1019.66
2018-07-15T15:09:12.502Z,1019.64
2018-07-15T15:10:39.629Z,1019.66
2018-07-15T15:12:07.032Z,1019.64
2018-07-15T15:13:34.278Z,1019.63
2018-07-15T15:15:01.616Z,1019.63
2018-07-15T15:16:28.734Z,1019.61
2018-07-15T15:17:56.280Z,1019.65
2018-07-15T15:19:23.818Z,1019.64
2018-07-15T15:20:51.098Z,1019.64
2018-07-15T15:22:18.820Z,1019.61
2018-07-15T15:23:46.468Z,1019.62
2018-07-15T15:25:13.812Z,1019.55
2018-07-15T15:26:41.184Z,1019.56
2018-07-15T15:28:08.551Z,1019.55
2018-07-15T15:29:35.434Z,1019.56
2018-07-15T15:31:02.533Z,1019.49
2018-07-15T15:32:29.982Z,1019.51
2018-07-15T15:33:57.420Z,1019.51
2018-07-15T15:35:24.711Z,1019.48
2018-07-15T15:36:52.224Z,1019.44
2018-07-15T15:38:19.877Z,1019.43
2018-07-15T15:39:47.304Z,1019.45
2018-07-15T15:41:14.997Z,1019.47
2018-07-15T15:42:42.131Z,1019.47
2018-07-15T15:44:09.015Z,1019.48
2018-07-15T15:45:36.090Z,1019.46
2018-07-15T15:47:03.394Z,1019.45
2018-07-15T15:48:30.517Z,1019.44
2018-07-15T15:49:57.840Z,1019.43
2018-07-15T15:51:25.272Z,1019.44
2018-07-15T15:52:52.824Z,1019.43
2018-07-15T15:54:20.361Z,1019.44
2018-07-15T15:55:47.984Z,1019.44
2018-07-15T15:57:15.047Z,1019.41
2018-07-15T15:58:42.432Z,1019.39
2018-07-15T16:00:09.411Z,1019.38
2018-07-15T16:01:36.953Z,1019.34
2018-07-15T16:03:04.550Z,1019.33
2018-07-15T16:04:31.746Z,1019.33
2018-07-15T16:05:59.257Z,1019.30
2018-07-15T16:07:26.547Z,1019.26
2018-07-15T16:08:53.796Z,1019.24
2018-07-15T16:10:21.339Z,1019.24
2018-07-15T16:11:49.002Z,1019.20
2018-07-15T16:13:16.357Z,1019.19
2018-07-15T16:14:43.657Z,1019.15
2018-07-15T16:16:10.816Z,1019.13
2018-07-15T16:17:38.431Z,1019.15
2018-07-15T16:19:05.275Z,1019.11
2018-07-15T16:20:32.860Z,1019.13
2018-07-15T16:22:00.422Z,1019.15
2018-07-15T16:23:27.909Z,1019.14
2018-07-15T16:24:55.517Z,1019.13
2018-07-15T16:26:22.522Z,1019.12
2018-07-15T16:27:49.908Z,1019.13
2018-07-15T16:29:17.200Z,1019.08
2018-07-15T16:30:44.712Z,1019.05
2018-07-15T16:32:11.946Z,1019.05
2018-07-15T16:33:39.576Z,1019.03
2018-07-15T16:35:06.931Z,1019.05
2018-07-15T16:36:34.592Z,1019.02
2018-07-15T16:38:01.767Z,1019.02
2018-07-15T16:39:29.345Z,1019.02
2018-07-15T16:40:56.596Z,1019.03
2018-07-15T16:42:24.214Z,1019.02
2018-07-15T16:43:52.006Z,1019.01
2018-07-15T16:45:19.219Z,1019.01
2018-07-15T16:46:46.571Z,1019.02
2018-07-15T16:48:14.290Z,1019.00
2018-07-15T16:49:41.852Z,1018.98
2018-07-15T16:51:09.506Z,1018.96
2018-07-15T16:52:37.045Z,1018.96
2018-07-15T16:54:04.576Z,1018.96
2018-07-15T16:55:32.299Z,1018.96
2018-07-15T16:56:59.860Z,1018.93
2018-07-15T16:58:27.183Z,1018.93
2018-07-15T16:59:54.802Z,1018.94
2018-07-15T17:01:22.315Z,1018.92
2018-07-15T17:02:49.523Z,1018.92
2018-07-15T17:04:17.073Z,1018.91
2018-07-15T17:05:44.280Z,1018.92
2018-07-15T17:07:11.831Z,1018.92
2018-07-15T17:08:39.256Z,1018.95
2018-07-15T17:10:06.028Z,1018.94
2018-07-15T17:11:33.525Z,1018.93
2018-07-15T17:13:00.825Z,1018.94
2018-07-15T17:14:28.312Z,1018.94
2018-07-15T17:15:55.914Z,1018.93
2018-07-15T17:17:23.186Z,1018.91
2018-07-15T17:18:50.855Z,1018.93
2018-07-15T17:20:18.505Z,1018.94
2018-07-15T17:21:45.955Z,1018.95
2018-07-15T17:23:12.936Z,1018.93
2018-07-15T17:24:40.462Z,1018.91
2018-07-15T17:26:08.223Z,1018.91
2018-07-15T17:27:35.650Z,1018.89
2018-07-15T17:29:02.990Z,1018.92
2018-07-15T17:30:30.401Z,1018.92
2018-07-15T17:31:57.712Z,1018.93
2018-07-15T17:33:25.142Z,1018.93
2018-07-15T17:34:52.778Z,1018.94
2018-07-15T17:36:20.462Z,1018.93
2018-07-15T17:37:47.989Z,1018.93
2018-07-15T17:39:15.334Z,1018.95
2018-07-15T17:40:42.931Z,1018.97
2018-07-15T17:42:10.584Z,1018.97
2018-07-15T17:43:38.020Z,1018.99
2018-07-15T17:45:05.771Z,1018.98
2018-07-15T17:46:33.057Z,1019.00
2018-07-15T17:48:00.691Z,1019.00
2018-07-15T17:49:28.075Z,1018.96
2018-07-15T17:50:55.576Z,1018.99
2018-07-15T17:52:22.799Z,1018.99
2018-07-15T17:53:50.489Z,1018.98
2018-07-15T17:55:17.948Z,1018.99
2018-07-15T17:56:45.632Z,1018.99
2018-07-15T17:58:12.760Z,1018.98
2018-07-15T17:59:40.189Z,1018.97
2018-07-15T18:01:07.760Z,1018.98
2018-07-15T18:02:35.146Z,1018.99
2018-07-15T18:04:02.443Z,1019.00
2018-07-15T18:05:29.818Z,1018.99
2018-07-15T18:06:57.251Z,1019.01
2018-07-15T18:08:24.600Z,1019.06
2018-07-15T18:09:51.939Z,1019.08
2018-07-15T18:11:19.428Z,1019.08
2018-07-15T18:12:46.955Z,1019.07
2018-07-15T18:14:14.481Z,1019.09
2018-07-15T18:15:41.954Z,1019.08
2018-07-15T18:17:09.361Z,1019.11
2018-07-15T18:18:37.031Z,1019.10
2018-07-15T18:20:04.386Z,1019.12
2018-07-15T18:21:31.885Z,1019.12
2018-07-15T18:22:59.073Z,1019.11
2018-07-15T18:24:26.314Z,1019.12
2018-07-15T18:25:53.403Z,1019.10
2018-07-15T18:27:20.607Z,1019.11
2018-07-15T18:28:48.305Z,1019.09
2018-07-15T18:30:15.893Z,1019.07
2018-07-15T18:31:43.444Z,1019.07
2018-07-15T18:33:10.810Z,1019.03
2018-07-15T18:34:38.120Z,1019.05
2018-07-15T18:36:05.600Z,1019.03
2018-07-15T18:37:32.881Z,1019.04
2018-07-15T18:39:00.447Z,1019.09
2018-07-15T18:40:27.859Z,1019.12
2018-07-15T18:41:55.338Z,1019.12
2018-07-15T18:43:22.941Z,1019.13
2018-07-15T18:44:50.480Z,1019.14
2018-07-15T18:46:18.111Z,1019.15
2018-07-15T18:47:45.605Z,1019.17
2018-07-15T18:49:12.925Z,1019.15
2018-07-15T18:50:40.381Z,1019.19
2018-07-15T18:52:07.664Z,1019.22
2018-07-15T18:53:35.266Z,1019.23
2018-07-15T18:55:02.512Z,1019.22
2018-07-15T18:56:30.042Z,1019.22
2018-07-15T18:57:57.516Z,1019.24
2018-07-15T18:59:25.138Z,1019.24
2018-07-15T19:00:52.345Z,1019.25
2018-07-15T19:02:19.870Z,1019.26
2018-07-15T19:03:46.929Z,1019.25
2018-07-15T19:05:14.568Z,1019.26
2018-07-15T19:06:42.198Z,1019.30
2018-07-15T19:08:09.675Z,1019.30
2018-07-15T19:09:37.216Z,1019.29
2018-07-15T19:11:04.562Z,1019.27
2018-07-15T19:12:32.275Z,1019.28
2018-07-15T19:13:59.482Z,1019.30
2018-07-15T19:15:27.132Z,1019.30
2018-07-15T19:16:54.326Z,1019.31
2018-07-15T19:18:21.851Z,1019.32
2018-07-15T19:19:49.413Z,1019.31
2018-07-15T19:21:16.972Z,1019.31
2018-07-15T19:22:44.489Z,1019.33
2018-07-15T19:24:11.678Z,1019.36
2018-07-15T19:25:39.164Z,1019.36
2018-07-15T19:27:06.525Z,1019.34
2018-07-15T19:28:34.044Z,1019.35
2018-07-15T19:30:01.725Z,1019.38
2018-07-15T19:31:29.148Z,1019.38
2018-07-15T19:32:56.537Z,1019.40
2018-07-15T19:34:24.031Z,1019.41
2018-07-15T19:35:51.438Z,1019.43
2018-07-15T19:37:18.851Z,1019.50
2018-07-15T19:38:46.310Z,1019.51
2018-07-15T19:40:13.718Z,1019.53
2018-07-15T19:41:41.188Z,1019.55
2018-07-15T19:43:08.631Z,1019.56
2018-07-15T19:44:36.233Z,1019.57
2018-07-15T19:46:03.539Z,1019.62
2018-07-15T19:47:30.878Z,1019.62
2018-07-15T19:48:58.498Z,1019.64
2018-07-15T19:50:26.043Z,1019.65
2018-07-15T19:51:53.560Z,1019.65
2018-07-15T19:53:21.153Z,1019.61
2018-07-15T19:54:48.625Z,1019.62
2018-07-15T19:56:15.683Z,1019.62
2018-07-15T19:57:42.988Z,1019.62
2018-07-15T19:59:10.578Z,1019.63
2018-07-15T20:00:37.747Z,1019.62
2018-07-15T20:02:05.115Z,1019.62
2018-07-15T20:03:32.692Z,1019.62
2018-07-15T20:05:00.164Z,1019.63
2018-07-15T20:06:27.550Z,1019.64
2018-07-15T20:07:55.103Z,1019.64
2018-07-15T20:09:22.415Z,1019.65
2018-07-15T20:10:49.849Z,1019.64
2018-07-15T20:12:17.010Z,1019.65
2018-07-15T20:13:44.244Z,1019.67
2018-07-15T20:15:11.417Z,1019.67
2018-07-15T20:16:38.934Z,1019.66
2018-07-15T20:18:06.428Z,1019.65
2018-07-15T20:19:33.783Z,1019.65
2018-07-15T20:21:00.928Z,1019.61
2018-07-15T20:22:28.190Z,1019.61
2018-07-15T20:23:55.447Z,1019.61
2018-07-15T20:25:22.560Z,1019.63
2018-07-15T20:26:50.222Z,1019.64
2018-07-15T20:28:17.670Z,1019.63
2018-07-15T20:29:45.026Z,1019.63
2018-07-15T20:31:12.564Z,1019.65
2018-07-15T20:32:40.003Z,1019.65
2018-07-15T20:34:07.303Z,1019.67
2018-07-15T20:35:34.669Z,1019.69
2018-07-15T20:37:01.952Z,1019.69
2018-07-15T20:38:29.332Z,1019.67
2018-07-15T20:39:56.944Z,1019.69
2018-07-15T20:41:24.076Z,1019.67
2018-07-15T20:42:51.230Z,1019.68
2018-07-15T20:44:18.768Z,1019.68
2018-07-15T20:45:46.193Z,1019.68
2018-07-15T20:47:13.567Z,1019.72
2018-07-15T20:48:41.118Z,1019.71
2018-07-15T20:50:08.638Z,1019.72
2018-07-15T20:51:36.077Z,1019.71
2018-07-15T20:53:03.355Z,1019.70
2018-07-15T20:54:30.850Z,1019.70
2018-07-15T20:55:58.378Z,1019.69
2018-07-15T20:57:25.749Z,1019.70
2018-07-15T20:58:52.892Z,1019.72
2018-07-15T21:00:20.450Z,1019.71
2018-07-15T21:01:48.149Z,1019.73
2018-07-15T21:03:15.410Z,1019.74
2018-07-15T21:04:42.598Z,1019.76
2018-07-15T21:06:10.225Z,1019.71
2018-07-15T21:07:37.738Z,1019.71
2018-07-15T21:09:05.022Z,1019.70
2018-07-15T21:10:32.553Z,1019.70
2018-07-15T21:11:59.743Z,1019.74
2018-07-15T21:13:27.353Z,1019.74
2018-07-15T21:14:54.686Z,1019.75
2018-07-15T21:16:22.111Z,1019.75
2018-07-15T21:17:49.461Z,1019.77
2018-07-15T21:19:17.177Z,1019.78
2018-07-15T21:20:44.456Z,1019.78